createdAt,value
2023-02-12T00:00:06.617Z,58.83
2023-02-12T00:02:41.728Z,58.96
2023-02-12T00:05:08.512Z,58.84
2023-02-12T00:07:35.199Z,59.19
2023-02-12T00:10:01.989Z,59.25
2023-02-12T00:12:28.594Z,59.09
2023-02-12T00:14:55.216Z,59.34
2023-02-12T00:17:21.929Z,59.25
2023-02-12T00:19:49.025Z,59.32
2023-02-12T00:22:15.794Z,59.31
2023-02-12T00:24:42.591Z,59.19
2023-02-12T00:27:09.366Z,59.20
2023-02-12T00:29:37.527Z,59.44
2023-02-12T00:32:05.631Z,59.49
2023-02-12T00:34:32.432Z,59.49
2023-02-12T00:36:59.342Z,59.46
2023-02-12T00:39:26.936Z,59.44
2023-02-12T00:41:53.532Z,59.52
2023-02-12T00:44:20.226Z,59.77
2023-02-12T00:46:46.928Z,59.55
2023-02-12T00:49:14.292Z,59.65
2023-02-12T00:51:41.036Z,59.82
2023-02-12T00:54:10.243Z,59.73
2023-02-12T00:56:37.062Z,59.88
2023-02-12T00:59:03.894Z,59.78
2023-02-12T01:01:30.799Z,59.42
2023-02-12T01:03:57.702Z,59.68
2023-02-12T01:06:26.172Z,59.70
2023-02-12T01:08:53.623Z,59.67
2023-02-12T01:11:20.596Z,59.78
2023-02-12T01:13:48.681Z,59.79
2023-02-12T01:16:17.775Z,59.90
2023-02-12T01:18:45.829Z,59.66
2023-02-12T01:21:19.182Z,59.69
2023-02-12T01:23:46.274Z,59.79
2023-02-12T01:26:14.056Z,59.91
2023-02-12T01:28:42.589Z,59.82
2023-02-12T01:31:14.792Z,59.88
2023-02-12T01:33:42.690Z,59.79
2023-02-12T01:36:11.259Z,59.80
2023-02-12T01:38:38.232Z,59.97
2023-02-12T01:41:14.175Z,60.06
2023-02-12T01:43:41.716Z,60.04
2023-02-12T01:46:13.492Z,60.12
2023-02-12T01:48:43.854Z,60.24
2023-02-12T01:51:14.915Z,60.15
2023-02-12T01:53:47.513Z,60.05
2023-02-12T01:56:15.076Z,60.10
2023-02-12T01:58:44.037Z,60.08
2023-02-12T02:01:17.134Z,60.15
2023-02-12T02:03:46.892Z,60.09
2023-02-12T02:06:23.663Z,60.10
2023-02-12T02:08:50.993Z,60.32
2023-02-12T02:11:36.332Z,60.14
2023-02-12T02:14:23.869Z,60.38
2023-02-12T02:17:01.727Z,60.40
2023-02-12T02:20:02.185Z,60.35
2023-02-12T02:22:43.521Z,60.32
2023-02-12T02:25:46.818Z,60.45
2023-02-12T02:28:54.564Z,60.32
2023-02-12T02:31:33.193Z,60.31
2023-02-12T02:34:05.276Z,60.54
2023-02-12T02:36:59.182Z,60.49
2023-02-12T02:39:35.663Z,60.55
2023-02-12T02:42:17.327Z,60.68
2023-02-12T02:44:54.299Z,60.64
2023-02-12T02:47:35.891Z,60.55
2023-02-12T02:50:08.013Z,60.61
2023-02-12T02:52:43.521Z,60.63
2023-02-12T02:55:12.949Z,60.52
2023-02-12T02:57:46.051Z,60.45
2023-02-12T03:00:15.883Z,60.51
2023-02-12T03:02:50.283Z,60.64
2023-02-12T03:05:23.634Z,60.64
2023-02-12T03:07:56.208Z,60.66
2023-02-12T03:10:31.927Z,60.52
2023-02-12T03:13:25.792Z,60.60
2023-02-12T03:16:07.874Z,60.48
2023-02-12T03:18:41.520Z,60.59
2023-02-12T03:21:20.487Z,60.63
2023-02-12T03:23:55.351Z,60.76
2023-02-12T03:26:32.611Z,60.54
2023-02-12T03:28:59.333Z,60.59
2023-02-12T03:31:37.812Z,60.57
2023-02-12T03:34:28.037Z,60.81
2023-02-12T03:37:01.714Z,60.64
2023-02-12T03:39:49.789Z,60.63
2023-02-12T03:42:24.359Z,60.49
2023-02-12T03:45:01.705Z,60.36
2023-02-12T03:47:42.986Z,60.71
2023-02-12T03:50:37.068Z,60.49
2023-02-12T03:53:05.326Z,60.70
2023-02-12T03:55:36.028Z,60.47
2023-02-12T03:58:06.069Z,60.72
2023-02-12T04:00:32.882Z,60.73
2023-02-12T04:03:00.010Z,60.82
2023-02-12T04:05:28.035Z,60.74
2023-02-12T04:07:57.676Z,60.89
2023-02-12T04:10:37.695Z,60.71
2023-02-12T04:13:24.618Z,60.85
2023-02-12T04:15:59.360Z,60.83
2023-02-12T04:18:44.872Z,60.93
2023-02-12T04:21:23.816Z,60.92
2023-02-12T04:24:06.804Z,60.62
2023-02-12T04:26:36.162Z,60.79
2023-02-12T04:29:12.281Z,60.76
2023-02-12T04:31:49.883Z,60.79
2023-02-12T04:34:28.332Z,60.73
2023-02-12T04:37:04.418Z,60.76
2023-02-12T04:39:35.973Z,60.84
2023-02-12T04:42:04.070Z,60.85
2023-02-12T04:44:34.747Z,60.87
2023-02-12T04:47:01.730Z,60.86
2023-02-12T04:49:28.474Z,60.77
2023-02-12T04:51:55.342Z,60.85
2023-02-12T04:54:23.359Z,60.96
2023-02-12T04:56:50.824Z,60.97
2023-02-12T04:59:18.015Z,61.05
2023-02-12T05:01:45.719Z,60.88
2023-02-12T05:04:15.093Z,60.82
2023-02-12T05:06:43.239Z,60.44
2023-02-12T05:09:14.015Z,60.96
2023-02-12T05:11:40.798Z,61.13
2023-02-12T05:14:07.582Z,61.38
2023-02-12T05:16:34.763Z,61.39
2023-02-12T05:19:01.532Z,61.30
2023-02-12T05:21:28.369Z,61.20
2023-02-12T05:23:55.213Z,61.29
2023-02-12T05:26:22.813Z,61.17
2023-02-12T05:28:49.615Z,61.23
2023-02-12T05:31:21.129Z,61.22
2023-02-12T05:33:49.741Z,61.23
2023-02-12T05:36:19.994Z,61.21
2023-02-12T05:38:47.282Z,61.14
2023-02-12T05:41:19.722Z,61.18
2023-02-12T05:43:49.435Z,61.31
2023-02-12T05:46:18.041Z,61.29
2023-02-12T05:48:45.165Z,61.30
2023-02-12T05:51:18.148Z,61.29
2023-02-12T05:53:44.812Z,61.14
2023-02-12T05:56:21.999Z,61.20
2023-02-12T05:58:53.437Z,61.15
2023-02-12T06:01:30.803Z,61.20
2023-02-12T06:04:02.976Z,61.12
2023-02-12T06:06:31.303Z,61.36
2023-02-12T06:08:58.659Z,61.31
2023-02-12T06:11:25.555Z,61.40
2023-02-12T06:13:52.316Z,61.47
2023-02-12T06:16:24.682Z,61.25
2023-02-12T06:18:52.306Z,61.22
2023-02-12T06:21:20.492Z,61.28
2023-02-12T06:23:48.303Z,61.28
2023-02-12T06:26:15.695Z,61.23
2023-02-12T06:28:42.424Z,61.26
2023-02-12T06:31:22.942Z,61.07
2023-02-12T06:33:50.401Z,61.13
2023-02-12T06:36:17.562Z,61.25
2023-02-12T06:38:44.785Z,61.31
2023-02-12T06:41:12.066Z,61.54
2023-02-12T06:43:39.162Z,61.23
2023-02-12T06:46:06.976Z,61.39
2023-02-12T06:48:34.347Z,61.36
2023-02-12T06:51:09.215Z,61.30
2023-02-12T06:53:36.037Z,61.29
2023-02-12T06:56:11.235Z,61.07
2023-02-12T06:58:44.596Z,61.14
2023-02-12T07:01:22.820Z,61.15
2023-02-12T07:03:52.557Z,61.26
2023-02-12T07:06:20.525Z,61.29
2023-02-12T07:08:47.991Z,61.20
2023-02-12T07:11:14.918Z,61.13
2023-02-12T07:13:42.344Z,61.35
2023-02-12T07:16:14.587Z,61.27
2023-02-12T07:18:42.640Z,61.44
2023-02-12T07:21:11.909Z,61.18
2023-02-12T07:23:39.212Z,61.35
2023-02-12T07:26:11.838Z,61.38
2023-02-12T07:28:39.161Z,60.98
2023-02-12T07:31:17.766Z,60.63
2023-02-12T07:33:45.130Z,60.53
2023-02-12T07:36:15.217Z,60.54
2023-02-12T07:38:42.516Z,60.14
2023-02-12T07:41:10.994Z,59.57
2023-02-12T07:43:38.690Z,59.05
2023-02-12T07:46:09.530Z,58.57
2023-02-12T07:48:36.259Z,58.65
2023-02-12T07:51:05.561Z,58.15
2023-02-12T07:53:32.380Z,57.59
2023-02-12T07:56:12.986Z,57.87
2023-02-12T07:58:41.321Z,57.12
2023-02-12T08:01:13.572Z,57.08
2023-02-12T08:03:40.516Z,56.85
2023-02-12T08:06:13.071Z,56.48
2023-02-12T08:08:39.750Z,56.30
2023-02-12T08:11:08.549Z,56.22
2023-02-12T08:13:36.570Z,56.13
2023-02-12T08:16:06.625Z,55.89
2023-02-12T08:18:34.214Z,56.03
2023-02-12T08:21:03.990Z,56.01
2023-02-12T08:23:31.362Z,55.73
2023-02-12T08:26:08.333Z,55.73
2023-02-12T08:28:35.908Z,55.98
2023-02-12T08:31:04.430Z,55.82
2023-02-12T08:33:31.412Z,55.81
2023-02-12T08:36:12.455Z,55.72
2023-02-12T08:38:40.187Z,55.73
2023-02-12T08:41:10.294Z,55.55
2023-02-12T08:43:38.227Z,55.46
2023-02-12T08:46:07.090Z,55.26
2023-02-12T08:48:34.489Z,55.45
2023-02-12T08:51:19.163Z,55.25
2023-02-12T08:53:48.156Z,55.27
2023-02-12T08:56:17.411Z,55.38
2023-02-12T08:58:44.245Z,55.36
2023-02-12T09:01:17.288Z,55.10
2023-02-12T09:03:45.229Z,54.92
2023-02-12T09:06:12.743Z,54.96
2023-02-12T09:08:40.260Z,55.06
2023-02-12T09:11:09.385Z,55.16
2023-02-12T09:13:36.961Z,55.17
2023-02-12T09:16:05.149Z,54.92
2023-02-12T09:18:32.059Z,55.19
2023-02-12T09:21:04.324Z,55.11
2023-02-12T09:23:31.470Z,55.00
2023-02-12T09:25:58.599Z,55.05
2023-02-12T09:28:26.032Z,54.95
2023-02-12T09:30:52.839Z,55.30
2023-02-12T09:33:19.639Z,55.09
2023-02-12T09:35:46.390Z,55.08
2023-02-12T09:38:13.393Z,55.02
2023-02-12T09:41:04.404Z,54.80
2023-02-12T09:43:40.076Z,54.80
2023-02-12T09:46:12.925Z,54.97
2023-02-12T09:48:54.885Z,54.71
2023-02-12T09:51:23.190Z,54.86
2023-02-12T09:54:05.271Z,54.97
2023-02-12T09:56:35.625Z,54.91
2023-02-12T09:59:23.094Z,54.95
2023-02-12T10:01:49.802Z,54.73
2023-02-12T10:04:16.489Z,54.66
2023-02-12T10:06:53.083Z,54.67
2023-02-12T10:09:29.246Z,54.57
2023-02-12T10:12:17.179Z,54.54
2023-02-12T10:14:54.499Z,54.76
2023-02-12T10:17:38.065Z,54.63
2023-02-12T10:20:42.264Z,54.66
2023-02-12T10:23:27.781Z,54.61
2023-02-12T10:26:13.164Z,54.50
2023-02-12T10:28:41.617Z,54.40
2023-02-12T10:32:13.283Z,54.29
2023-02-12T10:34:42.669Z,54.38
2023-02-12T10:37:11.787Z,54.38
2023-02-12T10:39:59.955Z,54.30
2023-02-12T10:42:41.018Z,54.34
2023-02-12T10:45:14.344Z,54.25
2023-02-12T10:47:41.048Z,54.29
2023-02-12T10:50:22.479Z,54.46
2023-02-12T10:52:56.368Z,54.46
2023-02-12T10:55:34.508Z,54.40
2023-02-12T10:58:03.874Z,54.29
2023-02-12T11:00:38.371Z,54.28
2023-02-12T11:03:14.827Z,54.21
2023-02-12T11:05:44.287Z,54.27
2023-02-12T11:08:30.382Z,54.60
2023-02-12T11:11:05.783Z,54.52
2023-02-12T11:13:32.528Z,54.58
2023-02-12T11:16:01.120Z,54.60
2023-02-12T11:18:33.001Z,54.64
2023-02-12T11:21:23.433Z,54.48
2023-02-12T11:23:50.308Z,54.50
2023-02-12T11:26:20.284Z,54.33
2023-02-12T11:29:00.523Z,54.46
2023-02-12T11:31:30.302Z,54.39
2023-02-12T11:34:10.132Z,54.32
2023-02-12T11:36:44.012Z,54.31
2023-02-12T11:39:32.598Z,54.50
2023-02-12T11:42:06.859Z,54.39
2023-02-12T11:44:39.931Z,54.27
2023-02-12T11:47:12.236Z,54.20
2023-02-12T11:49:49.003Z,54.10
2023-02-12T11:52:24.560Z,53.75
2023-02-12T11:54:56.905Z,53.79
2023-02-12T11:57:47.371Z,53.97
2023-02-12T12:00:29.118Z,54.00
2023-02-12T12:03:07.123Z,53.85
2023-02-12T12:05:44.945Z,53.90
2023-02-12T12:08:19.645Z,53.67
2023-02-12T12:10:56.797Z,54.00
2023-02-12T12:13:40.228Z,54.02
2023-02-12T12:16:34.690Z,53.84
2023-02-12T12:19:49.754Z,53.86
2023-02-12T12:22:28.316Z,54.48
2023-02-12T12:24:55.076Z,54.09
2023-02-12T12:28:03.187Z,54.04
2023-02-12T12:30:53.833Z,54.20
2023-02-12T12:33:29.274Z,54.11
2023-02-12T12:36:02.277Z,54.03
2023-02-12T12:38:45.373Z,53.94
2023-02-12T12:41:19.917Z,54.12
2023-02-12T12:43:52.538Z,54.12
2023-02-12T12:46:41.976Z,54.17
2023-02-12T12:49:29.182Z,54.20
2023-02-12T12:52:18.412Z,54.27
2023-02-12T12:55:24.160Z,54.24
2023-02-12T12:58:02.790Z,54.27
2023-02-12T13:00:35.432Z,54.20
2023-02-12T13:03:13.813Z,53.94
2023-02-12T13:06:05.095Z,54.18
2023-02-12T13:09:04.561Z,54.23
2023-02-12T13:11:57.852Z,54.00
2023-02-12T13:14:47.609Z,53.99
2023-02-12T13:17:26.059Z,54.01
2023-02-12T13:19:57.091Z,53.96
2023-02-12T13:22:57.531Z,53.99
2023-02-12T13:25:30.962Z,54.02
2023-02-12T13:28:00.608Z,54.03
2023-02-12T13:30:33.978Z,53.70
2023-02-12T13:33:20.639Z,54.07
2023-02-12T13:35:52.873Z,53.92
2023-02-12T13:38:26.098Z,53.91
2023-02-12T13:40:59.983Z,53.79
2023-02-12T13:44:06.492Z,53.94
2023-02-12T13:46:50.902Z,53.65
2023-02-12T13:49:20.067Z,53.74
2023-02-12T13:51:49.059Z,53.49
2023-02-12T13:54:24.458Z,53.60
2023-02-12T13:56:57.522Z,53.57
2023-02-12T13:59:30.549Z,53.52
2023-02-12T14:01:58.772Z,53.52
2023-02-12T14:04:52.032Z,53.47
2023-02-12T14:07:20.469Z,53.49
2023-02-12T14:09:47.004Z,53.48
2023-02-12T14:12:29.854Z,53.69
2023-02-12T14:15:06.886Z,53.56
2023-02-12T14:17:33.635Z,53.65
2023-02-12T14:20:26.536Z,53.72
2023-02-12T14:23:02.606Z,53.67
2023-02-12T14:25:40.042Z,53.55
2023-02-12T14:28:21.419Z,53.76
2023-02-12T14:31:20.865Z,53.58
2023-02-12T14:34:08.865Z,53.66
2023-02-12T14:36:39.049Z,53.73
2023-02-12T14:39:29.572Z,53.80
2023-02-12T14:42:16.085Z,53.60
2023-02-12T14:44:48.426Z,53.76
2023-02-12T14:47:35.041Z,53.64
2023-02-12T14:50:16.934Z,53.69
2023-02-12T14:52:53.122Z,53.71
2023-02-12T14:55:22.317Z,53.81
2023-02-12T14:57:49.524Z,53.69
2023-02-12T15:00:38.559Z,53.67
2023-02-12T15:03:14.322Z,53.70
2023-02-12T15:05:54.891Z,53.56
2023-02-12T15:08:51.495Z,53.60
2023-02-12T15:11:33.810Z,53.52
2023-02-12T15:14:05.850Z,53.54
2023-02-12T15:16:40.157Z,53.45
2023-02-12T15:19:35.059Z,53.50
2023-02-12T15:22:01.918Z,53.58
2023-02-12T15:24:28.752Z,53.47
2023-02-12T15:26:58.956Z,53.46
2023-02-12T15:29:29.673Z,53.98
2023-02-12T15:31:59.608Z,53.65
2023-02-12T15:34:33.304Z,53.63
2023-02-12T15:37:04.949Z,53.70
2023-02-12T15:39:44.271Z,54.87
2023-02-12T15:42:27.970Z,54.36
2023-02-12T15:45:16.892Z,53.82
2023-02-12T15:47:45.973Z,53.95
2023-02-12T15:50:15.897Z,53.66
2023-02-12T15:52:45.589Z,53.10
2023-02-12T15:55:36.040Z,53.63
2023-02-12T15:58:25.754Z,53.83
2023-02-12T16:00:53.606Z,53.63
2023-02-12T16:03:25.253Z,53.61
2023-02-12T16:06:03.279Z,53.47
2023-02-12T16:08:33.228Z,53.44
2023-02-12T16:11:13.607Z,53.55
2023-02-12T16:13:48.466Z,53.54
2023-02-12T16:16:15.217Z,53.63
2023-02-12T16:18:43.446Z,53.89
2023-02-12T16:21:20.687Z,53.50
2023-02-12T16:23:59.451Z,53.46
2023-02-12T16:26:27.208Z,53.48
2023-02-12T16:28:56.777Z,53.58
2023-02-12T16:31:27.279Z,53.60
2023-02-12T16:33:59.226Z,53.44
2023-02-12T16:36:25.812Z,53.34
2023-02-12T16:39:04.586Z,53.37
2023-02-12T16:41:52.674Z,53.30
2023-02-12T16:44:26.477Z,53.53
2023-02-12T16:46:56.874Z,53.50
2023-02-12T16:49:26.238Z,53.29
2023-02-12T16:51:53.601Z,53.54
2023-02-12T16:54:32.334Z,53.18
2023-02-12T16:56:59.868Z,53.19
2023-02-12T16:59:27.167Z,53.29
2023-02-12T17:02:19.847Z,53.44
2023-02-12T17:04:46.584Z,53.38
2023-02-12T17:07:22.905Z,53.57
2023-02-12T17:09:50.127Z,53.47
2023-02-12T17:12:17.454Z,53.67
2023-02-12T17:14:44.253Z,53.32
2023-02-12T17:17:11.078Z,53.52
2023-02-12T17:19:38.021Z,53.38
2023-02-12T17:22:06.505Z,53.55
2023-02-12T17:24:36.304Z,53.47
2023-02-12T17:27:03.133Z,53.44
2023-02-12T17:29:30.732Z,53.38
2023-02-12T17:31:57.935Z,53.32
2023-02-12T17:34:25.345Z,53.38
2023-02-12T17:36:52.421Z,53.43
2023-02-12T17:39:20.091Z,53.46
2023-02-12T17:41:47.372Z,53.43
2023-02-12T17:44:15.532Z,53.35
2023-02-12T17:46:42.987Z,53.31
2023-02-12T17:49:10.373Z,53.13
2023-02-12T17:51:37.688Z,53.01
2023-02-12T17:54:05.048Z,53.13
2023-02-12T17:56:31.894Z,53.27
2023-02-12T17:58:58.727Z,53.06
2023-02-12T18:01:25.739Z,53.11
2023-02-12T18:03:54.600Z,53.10
2023-02-12T18:06:26.066Z,53.42
2023-02-12T18:08:53.147Z,53.07
2023-02-12T18:11:20.409Z,53.28
2023-02-12T18:13:47.286Z,53.27
2023-02-12T18:16:14.842Z,53.13
2023-02-12T18:18:41.503Z,53.13
2023-02-12T18:21:14.350Z,53.43
2023-02-12T18:23:41.334Z,53.23
2023-02-12T18:26:10.463Z,53.49
2023-02-12T18:28:37.601Z,53.35
2023-02-12T18:31:05.687Z,53.41
2023-02-12T18:33:33.162Z,53.41
2023-02-12T18:36:08.779Z,53.36
2023-02-12T18:38:37.802Z,53.24
2023-02-12T18:41:16.844Z,53.11
2023-02-12T18:43:44.107Z,53.09
2023-02-12T18:46:13.842Z,53.39
2023-02-12T18:48:40.843Z,53.53
2023-02-12T18:51:09.090Z,53.26
2023-02-12T18:53:35.716Z,53.14
2023-02-12T18:56:07.990Z,53.13
2023-02-12T18:58:35.759Z,53.13
2023-02-12T19:01:12.873Z,52.98
2023-02-12T19:03:39.839Z,53.30
2023-02-12T19:06:06.679Z,53.35
2023-02-12T19:08:33.460Z,53.19
2023-02-12T19:11:00.267Z,53.42
2023-02-12T19:13:27.147Z,53.16
2023-02-12T19:15:53.888Z,53.01
2023-02-12T19:18:20.613Z,53.28
2023-02-12T19:20:47.262Z,53.22
2023-02-12T19:23:13.989Z,53.29
2023-02-12T19:25:59.485Z,53.14
2023-02-12T19:28:26.460Z,53.29
2023-02-12T19:30:53.345Z,53.08
2023-02-12T19:33:32.188Z,53.43
2023-02-12T19:35:59.003Z,53.05
2023-02-12T19:38:25.808Z,53.21
2023-02-12T19:41:01.172Z,53.37
2023-02-12T19:43:27.851Z,53.08
2023-02-12T19:45:54.559Z,53.12
2023-02-12T19:48:21.233Z,53.26
2023-02-12T19:50:47.832Z,53.33
2023-02-12T19:53:14.661Z,53.21
2023-02-12T19:55:41.367Z,53.10
2023-02-12T19:58:09.437Z,52.79
2023-02-12T20:00:36.290Z,52.92
2023-02-12T20:03:03.060Z,52.91
2023-02-12T20:05:29.946Z,53.09
2023-02-12T20:07:56.837Z,52.91
2023-02-12T20:10:23.657Z,52.87
2023-02-12T20:12:50.418Z,52.61
2023-02-12T20:15:17.063Z,52.79
2023-02-12T20:17:43.905Z,52.95
2023-02-12T20:20:11.575Z,52.77
2023-02-12T20:22:38.642Z,52.72
2023-02-12T20:25:05.637Z,53.12
2023-02-12T20:27:33.898Z,53.05
2023-02-12T20:30:00.536Z,52.60
2023-02-12T20:32:27.124Z,52.74
2023-02-12T20:35:10.274Z,52.84
2023-02-12T20:37:36.983Z,53.16
2023-02-12T20:40:05.080Z,52.59
2023-02-12T20:42:31.811Z,52.94
2023-02-12T20:44:58.606Z,52.93
2023-02-12T20:47:28.779Z,52.73
2023-02-12T20:49:55.981Z,52.92
2023-02-12T20:52:23.964Z,52.68
2023-02-12T20:54:51.261Z,52.91
2023-02-12T20:57:18.077Z,52.76
2023-02-12T20:59:44.689Z,52.87
2023-02-12T21:02:11.972Z,52.67
2023-02-12T21:04:38.619Z,52.27
2023-02-12T21:07:05.421Z,52.92
2023-02-12T21:09:32.121Z,52.85
2023-02-12T21:11:59.218Z,52.67
2023-02-12T21:14:26.587Z,52.70
2023-02-12T21:16:55.186Z,52.69
2023-02-12T21:19:22.353Z,52.91
2023-02-12T21:21:49.016Z,53.42
2023-02-12T21:24:18.554Z,54.10
2023-02-12T21:26:45.406Z,54.39
2023-02-12T21:29:12.086Z,54.56
2023-02-12T21:31:57.272Z,54.94
2023-02-12T21:34:24.356Z,55.23
2023-02-12T21:36:54.687Z,55.32
2023-02-12T21:39:27.571Z,55.46
2023-02-12T21:42:03.104Z,55.52
2023-02-12T21:44:32.045Z,55.61
2023-02-12T21:46:59.001Z,55.98
2023-02-12T21:49:27.749Z,55.85
2023-02-12T21:52:01.956Z,55.87
2023-02-12T21:54:30.075Z,55.88
2023-02-12T21:57:01.632Z,56.04
2023-02-12T21:59:31.797Z,56.06
2023-02-12T22:01:59.469Z,56.33
2023-02-12T22:04:26.484Z,56.51
2023-02-12T22:06:54.005Z,56.61
2023-02-12T22:09:22.537Z,56.76
2023-02-12T22:11:51.972Z,56.42
2023-02-12T22:14:19.412Z,56.94
2023-02-12T22:16:47.393Z,56.78
2023-02-12T22:19:14.444Z,56.98
2023-02-12T22:21:42.628Z,57.13
2023-02-12T22:24:12.271Z,57.14
2023-02-12T22:26:39.050Z,56.96
2023-02-12T22:29:08.454Z,57.10
2023-02-12T22:31:36.701Z,57.20
2023-02-12T22:34:07.766Z,57.34
2023-02-12T22:36:36.764Z,57.32
2023-02-12T22:39:05.301Z,57.26
2023-02-12T22:41:32.259Z,57.31
2023-02-12T22:44:00.755Z,57.13
2023-02-12T22:46:27.733Z,57.30
2023-02-12T22:48:54.454Z,57.49
2023-02-12T22:51:31.700Z,57.41
2023-02-12T22:53:59.074Z,57.53
2023-02-12T22:56:26.867Z,57.62
2023-02-12T22:58:58.088Z,57.54
2023-02-12T23:01:25.718Z,57.75
2023-02-12T23:03:52.651Z,57.76
2023-02-12T23:06:22.868Z,57.68
2023-02-12T23:08:51.437Z,57.93
2023-02-12T23:11:18.953Z,57.71
2023-02-12T23:13:46.358Z,57.79
2023-02-12T23:16:13.339Z,57.76
2023-02-12T23:18:40.001Z,57.90
2023-02-12T23:21:06.653Z,57.86
2023-02-12T23:23:35.974Z,58.01
2023-02-12T23:26:02.768Z,58.09
2023-02-12T23:28:29.803Z,58.12
2023-02-12T23:30:57.387Z,57.99
2023-02-12T23:33:24.481Z,58.16
2023-02-12T23:35:51.256Z,58.03
2023-02-12T23:38:17.983Z,58.17
2023-02-12T23:40:44.843Z,58.13
2023-02-12T23:43:11.624Z,58.49
2023-02-12T23:45:39.424Z,58.39
2023-02-12T23:48:06.245Z,58.40
2023-02-12T23:50:33.032Z,58.48
2023-02-12T23:52:59.750Z,58.35
2023-02-12T23:55:26.764Z,58.50
2023-02-12T23:57:53.738Z,58.42
